Terminal Aerodrome Forecast
Issued by NWS Wakefield, VA

Home | Current Version | Previous Version | Text Only | Print | Product List | Glossary On
Versions: 1 2 3 4 5 6 7 8 9 10 11 12 13 14 15 16 17 18 19 20 21 22 23 24
155
FTUS41 KAKQ 102340
TAFRIC
TAF
KRIC 102340Z 1100/1124 27014G19KT P6SM OVC060
     FM110300 29009KT P6SM SCT100
     FM111300 30012G19KT P6SM SKC=

USA.gov is the U.S. government's official web portal to all federal, state and local government web resources and services.